sensor_id;sensor_type;location;lat;lon;timestamp;pressure;altitude;pressure_sealevel;temperature;humidity
36798;BME280;22748;8.426;99.512;2023-11-21T00:00:47;100774.59;;;29.01;66.16
36798;BME280;22748;8.426;99.512;2023-11-21T00:03:17;100775.63;;;29.00;66.27
36798;BME280;22748;8.426;99.512;2023-11-21T00:05:49;100781.00;;;29.00;66.22
36798;BME280;22748;8.426;99.512;2023-11-21T00:08:30;100779.34;;;28.99;66.36
36798;BME280;22748;8.426;99.512;2023-11-21T00:11:02;100790.50;;;28.96;66.87
36798;BME280;22748;8.426;99.512;2023-11-21T00:13:33;100798.56;;;28.96;66.70
36798;BME280;22748;8.426;99.512;2023-11-21T00:16:04;100804.75;;;28.96;66.86
36798;BME280;22748;8.426;99.512;2023-11-21T00:18:35;100814.50;;;28.97;67.10
36798;BME280;22748;8.426;99.512;2023-11-21T00:21:07;100817.19;;;28.97;67.32
36798;BME280;22748;8.426;99.512;2023-11-21T00:23:42;100815.50;;;28.96;66.71
36798;BME280;22748;8.426;99.512;2023-11-21T00:26:14;100822.75;;;28.96;67.03
36798;BME280;22748;8.426;99.512;2023-11-21T00:28:44;100826.50;;;28.95;67.00
36798;BME280;22748;8.426;99.512;2023-11-21T00:31:13;100831.06;;;28.94;66.75
36798;BME280;22748;8.426;99.512;2023-11-21T00:33:50;100838.88;;;28.96;66.87
36798;BME280;22748;8.426;99.512;2023-11-21T00:36:28;100837.63;;;28.85;66.66
36798;BME280;22748;8.426;99.512;2023-11-21T00:39:00;100840.53;;;28.77;67.04
36798;BME280;22748;8.426;99.512;2023-11-21T00:41:34;100840.94;;;28.80;66.82
36798;BME280;22748;8.426;99.512;2023-11-21T00:44:16;100849.41;;;28.77;66.96
36798;BME280;22748;8.426;99.512;2023-11-21T00:46:47;100866.56;;;28.83;66.84
36798;BME280;22748;8.426;99.512;2023-11-21T00:49:26;100865.97;;;28.87;67.45
36798;BME280;22748;8.426;99.512;2023-11-21T00:51:57;100862.88;;;28.90;67.50
36798;BME280;22748;8.426;99.512;2023-11-21T00:54:30;100862.47;;;28.93;67.11
36798;BME280;22748;8.426;99.512;2023-11-21T00:57:01;100872.81;;;28.97;67.44
36798;BME280;22748;8.426;99.512;2023-11-21T00:59:32;100859.59;;;29.02;68.04
36798;BME280;22748;8.426;99.512;2023-11-21T01:04:53;100869.53;;;29.08;67.92
36798;BME280;22748;8.426;99.512;2023-11-21T01:07:23;100875.72;;;29.08;67.89
36798;BME280;22748;8.426;99.512;2023-11-21T01:10:05;100881.31;;;29.07;67.68
36798;BME280;22748;8.426;99.512;2023-11-21T01:12:39;100882.81;;;29.09;67.54
36798;BME280;22748;8.426;99.512;2023-11-21T01:15:10;100877.22;;;29.11;67.52
36798;BME280;22748;8.426;99.512;2023-11-21T01:17:42;100884.00;;;29.07;66.37
36798;BME280;22748;8.426;99.512;2023-11-21T01:20:12;100882.78;;;29.03;65.88
36798;BME280;22748;8.426;99.512;2023-11-21T01:22:45;100891.44;;;29.05;65.88
36798;BME280;22748;8.426;99.512;2023-11-21T01:25:19;100882.16;;;29.07;64.23
36798;BME280;22748;8.426;99.512;2023-11-21T01:28:12;100879.66;;;29.06;64.26
36798;BME280;22748;8.426;99.512;2023-11-21T01:30:49;100878.06;;;29.11;63.62
36798;BME280;22748;8.426;99.512;2023-11-21T01:33:46;100876.81;;;29.14;63.74
36798;BME280;22748;8.426;99.512;2023-11-21T01:36:31;100882.41;;;29.19;64.42
36798;BME280;22748;8.426;99.512;2023-11-21T01:39:05;100880.13;;;29.23;64.10
36798;BME280;22748;8.426;99.512;2023-11-21T01:41:46;100881.59;;;29.25;64.33
36798;BME280;22748;8.426;99.512;2023-11-21T01:44:20;100891.72;;;29.23;64.54
36798;BME280;22748;8.426;99.512;2023-11-21T01:47:00;100886.13;;;29.18;64.37
36798;BME280;22748;8.426;99.512;2023-11-21T01:49:33;100895.84;;;29.26;64.09
36798;BME280;22748;8.426;99.512;2023-11-21T01:52:10;100887.78;;;29.32;64.48
36798;BME280;22748;8.426;99.512;2023-11-21T01:54:43;100895.03;;;29.39;64.19
36798;BME280;22748;8.426;99.512;2023-11-21T01:57:21;100896.47;;;29.41;64.06
36798;BME280;22748;8.426;99.512;2023-11-21T01:59:54;100901.66;;;29.43;63.99
36798;BME280;22748;8.426;99.512;2023-11-21T02:02:24;100903.94;;;29.46;64.07
36798;BME280;22748;8.426;99.512;2023-11-21T02:04:54;100904.34;;;29.43;64.27
36798;BME280;22748;8.426;99.512;2023-11-21T02:07:25;100903.31;;;29.44;64.16
36798;BME280;22748;8.426;99.512;2023-11-21T02:09:54;100897.72;;;29.39;64.07
36798;BME280;22748;8.426;99.512;2023-11-21T02:12:32;100904.75;;;29.40;63.53
36798;BME280;22748;8.426;99.512;2023-11-21T02:15:07;100901.47;;;29.38;62.77
36798;BME280;22748;8.426;99.512;2023-11-21T02:17:51;100906.41;;;29.41;63.06
36798;BME280;22748;8.426;99.512;2023-11-21T02:20:26;100909.75;;;29.43;62.73
36798;BME280;22748;8.426;99.512;2023-11-21T02:23:10;100904.56;;;29.41;62.85
36798;BME280;22748;8.426;99.512;2023-11-21T02:25:57;100904.34;;;29.43;63.27
36798;BME280;22748;8.426;99.512;2023-11-21T02:28:32;100910.34;;;29.45;63.55
36798;BME280;22748;8.426;99.512;2023-11-21T02:31:06;100915.53;;;29.46;63.16
36798;BME280;22748;8.426;99.512;2023-11-21T02:33:36;100909.75;;;29.49;62.81
36798;BME280;22748;8.426;99.512;2023-11-21T02:36:11;100911.59;;;29.42;63.67
36798;BME280;22748;8.426;99.512;2023-11-21T02:41:35;100902.69;;;29.42;64.01
36798;BME280;22748;8.426;99.512;2023-11-21T02:44:06;100889.03;;;29.37;63.83
36798;BME280;22748;8.426;99.512;2023-11-21T02:46:37;100887.78;;;29.26;63.57
36798;BME280;22748;8.426;99.512;2023-11-21T02:49:14;100888.59;;;29.33;63.86
36798;BME280;22748;8.426;99.512;2023-11-21T02:51:45;100898.56;;;29.46;62.81
36798;BME280;22748;8.426;99.512;2023-11-21T02:54:17;100900.84;;;29.49;62.71
36798;BME280;22748;8.426;99.512;2023-11-21T02:56:50;100891.09;;;29.54;63.13
36798;BME280;22748;8.426;99.512;2023-11-21T02:59:27;100892.34;;;29.59;62.63
36798;BME280;22748;8.426;99.512;2023-11-21T03:02:13;100891.53;;;29.58;62.99
36798;BME280;22748;8.426;99.512;2023-11-21T03:04:44;100884.91;;;29.61;62.68
36798;BME280;22748;8.426;99.512;2023-11-21T03:07:16;100892.34;;;29.59;62.21
36798;BME280;22748;8.426;99.512;2023-11-21T03:09:49;100879.09;;;29.50;62.08
36798;BME280;22748;8.426;99.512;2023-11-21T03:12:26;100878.06;;;29.51;62.25
36798;BME280;22748;8.426;99.512;2023-11-21T03:14:57;100873.31;;;29.60;62.56
36798;BME280;22748;8.426;99.512;2023-11-21T03:17:31;100878.69;;;29.67;62.78
36798;BME280;22748;8.426;99.512;2023-11-21T03:20:03;100873.53;;;29.72;62.28
36798;BME280;22748;8.426;99.512;2023-11-21T03:22:44;100876.44;;;29.77;63.37
36798;BME280;22748;8.426;99.512;2023-11-21T03:25:16;100877.06;;;29.79;63.22
36798;BME280;22748;8.426;99.512;2023-11-21T03:27:47;100874.38;;;29.79;62.48
36798;BME280;22748;8.426;99.512;2023-11-21T03:30:17;100869.38;;;29.83;62.30
36798;BME280;22748;8.426;99.512;2023-11-21T03:32:49;100867.91;;;29.87;61.51
36798;BME280;22748;8.426;99.512;2023-11-21T03:35:23;100869.34;;;29.89;61.48
36798;BME280;22748;8.426;99.512;2023-11-21T03:38:00;100872.91;;;29.90;61.69
36798;BME280;22748;8.426;99.512;2023-11-21T03:40:32;100866.03;;;29.94;61.56
36798;BME280;22748;8.426;99.512;2023-11-21T03:43:06;100861.06;;;29.91;61.82
36798;BME280;22748;8.426;99.512;2023-11-21T03:45:37;100857.75;;;29.96;62.13
36798;BME280;22748;8.426;99.512;2023-11-21T03:48:09;100860.84;;;29.99;62.39
36798;BME280;22748;8.426;99.512;2023-11-21T03:50:56;100860.41;;;30.02;62.12
36798;BME280;22748;8.426;99.512;2023-11-21T03:53:33;100858.34;;;30.04;61.57
36798;BME280;22748;8.426;99.512;2023-11-21T03:56:05;100851.31;;;30.03;61.64
36798;BME280;22748;8.426;99.512;2023-11-21T03:58:37;100850.88;;;30.06;61.36
36798;BME280;22748;8.426;99.512;2023-11-21T04:01:09;100847.16;;;30.07;61.88
36798;BME280;22748;8.426;99.512;2023-11-21T04:03:45;100844.25;;;30.09;61.16
36798;BME280;22748;8.426;99.512;2023-11-21T04:06:17;100837.59;;;30.11;60.74
36798;BME280;22748;8.426;99.512;2023-11-21T04:08:48;100827.88;;;30.10;61.12
36798;BME280;22748;8.426;99.512;2023-11-21T04:11:21;100823.50;;;30.09;61.46
36798;BME280;22748;8.426;99.512;2023-11-21T04:13:58;100823.50;;;30.09;61.34
36798;BME280;22748;8.426;99.512;2023-11-21T04:16:27;100818.13;;;30.09;60.89
36798;BME280;22748;8.426;99.512;2023-11-21T04:18:57;100814.41;;;30.10;60.38
36798;BME280;22748;8.426;99.512;2023-11-21T04:21:27;100812.78;;;29.96;61.43
36798;BME280;22748;8.426;99.512;2023-11-21T04:24:00;100811.09;;;30.08;60.74
36798;BME280;22748;8.426;99.512;2023-11-21T04:26:35;100811.25;;;30.20;61.03
36798;BME280;22748;8.426;99.512;2023-11-21T04:29:06;100804.03;;;30.21;61.21
36798;BME280;22748;8.426;99.512;2023-11-21T04:31:37;100804.19;;;30.26;60.79
36798;BME280;22748;8.426;99.512;2023-11-21T04:34:09;100802.75;;;30.30;60.72
36798;BME280;22748;8.426;99.512;2023-11-21T04:36:41;100795.28;;;30.32;60.88
36798;BME280;22748;8.426;99.512;2023-11-21T04:39:10;100789.47;;;30.35;60.92
36798;BME280;22748;8.426;99.512;2023-11-21T04:41:42;100785.78;;;30.29;61.04
36798;BME280;22748;8.426;99.512;2023-11-21T04:44:17;100782.84;;;30.31;60.67
36798;BME280;22748;8.426;99.512;2023-11-21T04:46:48;100778.28;;;30.38;60.52
36798;BME280;22748;8.426;99.512;2023-11-21T04:49:18;100774.75;;;30.31;60.45
36798;BME280;22748;8.426;99.512;2023-11-21T04:51:50;100768.75;;;30.29;60.82
36798;BME280;22748;8.426;99.512;2023-11-21T04:54:20;100760.03;;;30.40;60.80
36798;BME280;22748;8.426;99.512;2023-11-21T04:57:05;100751.78;;;30.28;60.19
36798;BME280;22748;8.426;99.512;2023-11-21T04:59:56;100738.53;;;30.20;60.38
36798;BME280;22748;8.426;99.512;2023-11-21T05:02:26;100735.53;;;30.42;60.72
36798;BME280;22748;8.426;99.512;2023-11-21T05:04:59;100734.63;;;30.54;59.85
36798;BME280;22748;8.426;99.512;2023-11-21T05:07:35;100734.09;;;30.39;59.58
36798;BME280;22748;8.426;99.512;2023-11-21T05:10:06;100720.78;;;30.51;59.40
36798;BME280;22748;8.426;99.512;2023-11-21T05:12:42;100716.00;;;30.46;59.11
36798;BME280;22748;8.426;99.512;2023-11-21T05:15:15;100715.16;;;30.52;60.28
36798;BME280;22748;8.426;99.512;2023-11-21T05:17:46;100708.03;;;30.65;59.37
36798;BME280;22748;8.426;99.512;2023-11-21T05:20:21;100701.75;;;30.71;59.72
36798;BME280;22748;8.426;99.512;2023-11-21T05:22:51;100705.41;;;30.76;59.01
36798;BME280;22748;8.426;99.512;2023-11-21T05:25:24;100704.16;;;30.79;59.20
36798;BME280;22748;8.426;99.512;2023-11-21T05:27:57;100705.59;;;30.57;59.83
36798;BME280;22748;8.426;99.512;2023-11-21T05:30:35;100700.97;;;30.64;60.15
36798;BME280;22748;8.426;99.512;2023-11-21T05:33:06;100692.00;;;30.70;60.27
36798;BME280;22748;8.426;99.512;2023-11-21T05:35:37;100684.69;;;30.77;59.25
36798;BME280;22748;8.426;99.512;2023-11-21T05:38:11;100684.38;;;30.67;57.29
36798;BME280;22748;8.426;99.512;2023-11-21T05:40:41;100676.84;;;30.44;57.79
36798;BME280;22748;8.426;99.512;2023-11-21T05:43:15;100663.81;;;30.66;57.91
36798;BME280;22748;8.426;99.512;2023-11-21T05:45:46;100660.66;;;30.75;57.78
36798;BME280;22748;8.426;99.512;2023-11-21T05:48:17;100662.22;;;30.83;57.79
36798;BME280;22748;8.426;99.512;2023-11-21T05:50:50;100655.75;;;30.66;57.12
36798;BME280;22748;8.426;99.512;2023-11-21T05:53:21;100651.84;;;30.62;57.68
36798;BME280;22748;8.426;99.512;2023-11-21T05:55:51;100645.81;;;30.91;57.13
36798;BME280;22748;8.426;99.512;2023-11-21T05:58:23;100643.78;;;31.05;57.39
36798;BME280;22748;8.426;99.512;2023-11-21T06:00:53;100640.78;;;30.70;56.70
36798;BME280;22748;8.426;99.512;2023-11-21T06:03:24;100629.84;;;30.90;56.68
36798;BME280;22748;8.426;99.512;2023-11-21T06:05:54;100617.59;;;31.12;56.51
36798;BME280;22748;8.426;99.512;2023-11-21T06:08:25;100607.03;;;31.29;55.85
36798;BME280;22748;8.426;99.512;2023-11-21T06:10:57;100598.16;;;31.41;55.90
36798;BME280;22748;8.426;99.512;2023-11-21T06:13:31;100598.44;;;31.51;55.62
36798;BME280;22748;8.426;99.512;2023-11-21T06:16:06;100585.56;;;31.53;56.43
36798;BME280;22748;8.426;99.512;2023-11-21T06:18:36;100581.22;;;31.33;56.58
36798;BME280;22748;8.426;99.512;2023-11-21T06:21:09;100557.91;;;31.39;55.86
36798;BME280;22748;8.426;99.512;2023-11-21T06:23:40;100552.91;;;31.43;56.23
36798;BME280;22748;8.426;99.512;2023-11-21T06:26:11;100547.84;;;31.46;56.99
36798;BME280;22748;8.426;99.512;2023-11-21T06:28:45;100542.84;;;31.50;56.58
36798;BME280;22748;8.426;99.512;2023-11-21T06:31:16;100536.84;;;31.48;56.26
36798;BME280;22748;8.426;99.512;2023-11-21T06:33:46;100534.75;;;31.50;56.06
36798;BME280;22748;8.426;99.512;2023-11-21T06:36:17;100525.03;;;31.61;55.44
36798;BME280;22748;8.426;99.512;2023-11-21T06:38:56;100520.59;;;31.66;55.58
36798;BME280;22748;8.426;99.512;2023-11-21T06:41:41;100511.56;;;31.72;54.43
36798;BME280;22748;8.426;99.512;2023-11-21T06:44:14;100516.63;;;31.81;54.00
36798;BME280;22748;8.426;99.512;2023-11-21T06:46:45;100503.25;;;31.86;53.86
36798;BME280;22748;8.426;99.512;2023-11-21T06:49:16;100501.97;;;31.88;54.06
36798;BME280;22748;8.426;99.512;2023-11-21T06:51:46;100495.16;;;31.86;53.63
36798;BME280;22748;8.426;99.512;2023-11-21T06:54:18;100493.94;;;31.70;53.23
36798;BME280;22748;8.426;99.512;2023-11-21T06:56:47;100495.47;;;31.66;53.79
36798;BME280;22748;8.426;99.512;2023-11-21T06:59:23;100483.97;;;31.70;53.15
36798;BME280;22748;8.426;99.512;2023-11-21T07:01:54;100487.75;;;31.81;53.30
36798;BME280;22748;8.426;99.512;2023-11-21T07:04:25;100484.50;;;31.91;53.21
36798;BME280;22748;8.426;99.512;2023-11-21T07:06:56;100487.31;;;31.96;53.27
36798;BME280;22748;8.426;99.512;2023-11-21T07:09:28;100484.13;;;31.75;53.83
36798;BME280;22748;8.426;99.512;2023-11-21T07:12:04;100484.94;;;31.88;53.36
36798;BME280;22748;8.426;99.512;2023-11-21T07:14:38;100478.38;;;31.84;53.39
36798;BME280;22748;8.426;99.512;2023-11-21T07:17:11;100476.44;;;31.49;53.94
36798;BME280;22748;8.426;99.512;2023-11-21T07:19:41;100476.34;;;31.67;53.57
36798;BME280;22748;8.426;99.512;2023-11-21T07:22:15;100473.53;;;31.86;53.27
36798;BME280;22748;8.426;99.512;2023-11-21T07:24:51;100472.03;;;31.90;54.38
36798;BME280;22748;8.426;99.512;2023-11-21T07:27:22;100459.06;;;31.68;54.74
36798;BME280;22748;8.426;99.512;2023-11-21T07:30:08;100458.16;;;31.74;54.63
36798;BME280;22748;8.426;99.512;2023-11-21T07:32:41;100459.06;;;31.68;54.55
36798;BME280;22748;8.426;99.512;2023-11-21T07:35:15;100457.44;;;31.67;55.19
36798;BME280;22748;8.426;99.512;2023-11-21T07:37:47;100456.97;;;31.70;54.90
36798;BME280;22748;8.426;99.512;2023-11-21T07:40:18;100460.63;;;31.76;54.78
36798;BME280;22748;8.426;99.512;2023-11-21T07:42:51;100457.91;;;31.64;55.32
36798;BME280;22748;8.426;99.512;2023-11-21T07:45:29;100450.16;;;31.56;54.45
36798;BME280;22748;8.426;99.512;2023-11-21T07:48:09;100444.66;;;31.32;55.74
36798;BME280;22748;8.426;99.512;2023-11-21T07:50:46;100444.56;;;31.39;55.03
36798;BME280;22748;8.426;99.512;2023-11-21T07:53:18;100441.41;;;31.42;55.09
36798;BME280;22748;8.426;99.512;2023-11-21T07:55:50;100444.97;;;31.43;55.27
36798;BME280;22748;8.426;99.512;2023-11-21T07:58:21;100443.75;;;31.39;55.82
36798;BME280;22748;8.426;99.512;2023-11-21T08:00:55;100449.44;;;31.19;56.06
36798;BME280;22748;8.426;99.512;2023-11-21T08:03:25;100451.44;;;31.23;55.41
36798;BME280;22748;8.426;99.512;2023-11-21T08:05:58;100454.13;;;31.23;55.71
36798;BME280;22748;8.426;99.512;2023-11-21T08:08:29;100451.06;;;31.50;56.36
36798;BME280;22748;8.426;99.512;2023-11-21T08:11:00;100453.88;;;31.55;56.31
36798;BME280;22748;8.426;99.512;2023-11-21T08:13:32;100447.66;;;31.43;56.29
36798;BME280;22748;8.426;99.512;2023-11-21T08:16:07;100460.56;;;31.52;56.78
36798;BME280;22748;8.426;99.512;2023-11-21T08:18:41;100455.56;;;31.56;57.16
36798;BME280;22748;8.426;99.512;2023-11-21T08:21:13;100458.94;;;31.51;57.72
36798;BME280;22748;8.426;99.512;2023-11-21T08:23:45;100457.31;;;31.62;57.52
36798;BME280;22748;8.426;99.512;2023-11-21T08:26:24;100465.31;;;31.69;57.52
36798;BME280;22748;8.426;99.512;2023-11-21T08:28:55;100463.09;;;31.77;57.71
36798;BME280;22748;8.426;99.512;2023-11-21T08:31:29;100472.97;;;31.84;57.29
36798;BME280;22748;8.426;99.512;2023-11-21T08:34:00;100469.31;;;31.90;57.03
36798;BME280;22748;8.426;99.512;2023-11-21T08:36:31;100474.88;;;31.95;56.64
36798;BME280;22748;8.426;99.512;2023-11-21T08:39:03;100473.38;;;31.99;56.35
36798;BME280;22748;8.426;99.512;2023-11-21T08:41:35;100472.91;;;32.02;56.32
36798;BME280;22748;8.426;99.512;2023-11-21T08:44:11;100476.19;;;32.04;56.12
36798;BME280;22748;8.426;99.512;2023-11-21T08:46:46;100474.88;;;32.07;56.16
36798;BME280;22748;8.426;99.512;2023-11-21T08:49:18;100472.78;;;32.09;56.34
36798;BME280;22748;8.426;99.512;2023-11-21T08:51:50;100474.66;;;32.08;56.52
36798;BME280;22748;8.426;99.512;2023-11-21T08:54:23;100471.38;;;32.06;56.80
36798;BME280;22748;8.426;99.512;2023-11-21T08:56:54;100470.19;;;32.02;57.07
36798;BME280;22748;8.426;99.512;2023-11-21T08:59:25;100470.19;;;32.02;57.63
36798;BME280;22748;8.426;99.512;2023-11-21T09:01:57;100472.31;;;32.00;57.27
36798;BME280;22748;8.426;99.512;2023-11-21T09:04:28;100473.13;;;32.01;57.74
36798;BME280;22748;8.426;99.512;2023-11-21T09:06:59;100473.19;;;31.94;58.43
36798;BME280;22748;8.426;99.512;2023-11-21T09:09:30;100476.25;;;31.86;58.73
36798;BME280;22748;8.426;99.512;2023-11-21T09:12:03;100476.00;;;31.75;59.11
36798;BME280;22748;8.426;99.512;2023-11-21T09:14:33;100485.03;;;31.81;59.17
36798;BME280;22748;8.426;99.512;2023-11-21T09:17:06;100484.81;;;31.83;58.95
36798;BME280;22748;8.426;99.512;2023-11-21T09:19:39;100495.03;;;31.81;59.25
36798;BME280;22748;8.426;99.512;2023-11-21T09:22:11;100496.53;;;31.76;59.44
36798;BME280;22748;8.426;99.512;2023-11-21T09:24:42;100495.13;;;31.74;60.12
36798;BME280;22748;8.426;99.512;2023-11-21T09:27:13;100499.84;;;31.78;59.80
36798;BME280;22748;8.426;99.512;2023-11-21T09:29:44;100505.81;;;31.81;60.18
36798;BME280;22748;8.426;99.512;2023-11-21T09:32:18;100501.25;;;31.81;60.31
36798;BME280;22748;8.426;99.512;2023-11-21T09:34:49;100508.31;;;31.82;60.39
36798;BME280;22748;8.426;99.512;2023-11-21T09:37:20;100509.13;;;31.83;60.47
36798;BME280;22748;8.426;99.512;2023-11-21T09:39:55;100506.66;;;31.81;60.91
36798;BME280;22748;8.426;99.512;2023-11-21T09:42:30;100506.91;;;31.80;61.13
36798;BME280;22748;8.426;99.512;2023-11-21T09:45:08;100516.63;;;31.81;61.12
36798;BME280;22748;8.426;99.512;2023-11-21T09:47:48;100504.66;;;31.76;61.62
36798;BME280;22748;8.426;99.512;2023-11-21T09:50:21;100503.00;;;31.75;61.66
36798;BME280;22748;8.426;99.512;2023-11-21T09:52:58;100503.00;;;31.75;61.83
36798;BME280;22748;8.426;99.512;2023-11-21T09:55:35;100514.84;;;31.74;62.06
36798;BME280;22748;8.426;99.512;2023-11-21T09:58:09;100513.81;;;31.75;61.86
36798;BME280;22748;8.426;99.512;2023-11-21T10:00:43;100503.81;;;31.76;61.67
36798;BME280;22748;8.426;99.512;2023-11-21T10:03:16;100505.13;;;31.73;61.94
36798;BME280;22748;8.426;99.512;2023-11-21T10:05:50;100515.91;;;31.73;61.94
36798;BME280;22748;8.426;99.512;2023-11-21T10:08:23;100501.34;;;31.74;61.67
36798;BME280;22748;8.426;99.512;2023-11-21T10:10:56;100510.31;;;31.75;61.86
36798;BME280;22748;8.426;99.512;2023-11-21T10:13:29;100510.53;;;31.73;61.81
36798;BME280;22748;8.426;99.512;2023-11-21T10:16:02;100512.16;;;31.74;62.13
36798;BME280;22748;8.426;99.512;2023-11-21T10:18:42;100518.41;;;31.75;61.92
36798;BME280;22748;8.426;99.512;2023-11-21T10:21:13;100518.41;;;31.75;61.91
36798;BME280;22748;8.426;99.512;2023-11-21T10:23:46;100522.13;;;31.74;61.96
36798;BME280;22748;8.426;99.512;2023-11-21T10:26:18;100517.56;;;31.74;62.41
36798;BME280;22748;8.426;99.512;2023-11-21T10:28:56;100526.50;;;31.75;62.52
36798;BME280;22748;8.426;99.512;2023-11-21T10:31:28;100529.19;;;31.75;62.49
36798;BME280;22748;8.426;99.512;2023-11-21T10:34:14;100532.13;;;31.73;62.52
36798;BME280;22748;8.426;99.512;2023-11-21T10:36:46;100533.75;;;31.74;62.42
36798;BME280;22748;8.426;99.512;2023-11-21T10:39:18;100539.16;;;31.74;62.40
36798;BME280;22748;8.426;99.512;2023-11-21T10:41:52;100536.94;;;31.71;62.58
36798;BME280;22748;8.426;99.512;2023-11-21T10:44:23;100543.84;;;31.67;62.93
36798;BME280;22748;8.426;99.512;2023-11-21T10:46:53;100545.06;;;31.53;63.33
36798;BME280;22748;8.426;99.512;2023-11-21T10:49:28;100552.94;;;31.54;63.10
36798;BME280;22748;8.426;99.512;2023-11-21T10:52:00;100552.25;;;31.59;63.25
36798;BME280;22748;8.426;99.512;2023-11-21T10:54:34;100545.22;;;31.58;63.41
36798;BME280;22748;8.426;99.512;2023-11-21T10:57:10;100542.88;;;31.62;63.20
36798;BME280;22748;8.426;99.512;2023-11-21T10:59:45;100549.13;;;31.62;63.27
36798;BME280;22748;8.426;99.512;2023-11-21T11:02:23;100554.50;;;31.62;62.82
36798;BME280;22748;8.426;99.512;2023-11-21T11:04:58;100559.44;;;31.65;63.10
36798;BME280;22748;8.426;99.512;2023-11-21T11:07:30;100559.31;;;31.60;63.58
36798;BME280;22748;8.426;99.512;2023-11-21T11:10:01;100559.75;;;31.57;63.04
36798;BME280;22748;8.426;99.512;2023-11-21T11:12:32;100565.72;;;31.47;62.90
36798;BME280;22748;8.426;99.512;2023-11-21T11:15:04;100561.72;;;31.50;62.89
36798;BME280;22748;8.426;99.512;2023-11-21T11:17:38;100569.50;;;31.40;63.40
36798;BME280;22748;8.426;99.512;2023-11-21T11:20:14;100570.78;;;31.37;63.15
36798;BME280;22748;8.426;99.512;2023-11-21T11:22:56;100572.28;;;31.33;63.30
36798;BME280;22748;8.426;99.512;2023-11-21T11:25:57;100574.78;;;31.34;63.08
36798;BME280;22748;8.426;99.512;2023-11-21T11:28:38;100577.91;;;31.31;63.08
36798;BME280;22748;8.426;99.512;2023-11-21T11:31:21;100576.75;;;31.27;62.77
36798;BME280;22748;8.426;99.512;2023-11-21T11:34:01;100581.97;;;31.22;63.21
36798;BME280;22748;8.426;99.512;2023-11-21T11:36:47;100586.94;;;31.25;62.92
36798;BME280;22748;8.426;99.512;2023-11-21T11:39:37;100584.00;;;31.27;62.44
36798;BME280;22748;8.426;99.512;2023-11-21T11:42:11;100587.16;;;31.24;62.37
36798;BME280;22748;8.426;99.512;2023-11-21T11:44:57;100591.25;;;31.26;62.17
36798;BME280;22748;8.426;99.512;2023-11-21T11:47:38;100593.97;;;31.26;62.32
36798;BME280;22748;8.426;99.512;2023-11-21T11:50:10;100599.16;;;31.28;62.71
36798;BME280;22748;8.426;99.512;2023-11-21T11:52:43;100600.56;;;31.30;63.01
36798;BME280;22748;8.426;99.512;2023-11-21T11:55:14;100603.63;;;31.34;62.45
36798;BME280;22748;8.426;99.512;2023-11-21T11:57:48;100609.63;;;31.36;62.24
36798;BME280;22748;8.426;99.512;2023-11-21T12:00:20;100612.94;;;31.38;62.62
36798;BME280;22748;8.426;99.512;2023-11-21T12:02:55;100619.16;;;31.39;62.30
36798;BME280;22748;8.426;99.512;2023-11-21T12:05:32;100618.09;;;31.40;62.55
36798;BME280;22748;8.426;99.512;2023-11-21T12:08:15;100630.97;;;31.37;62.62
36798;BME280;22748;8.426;99.512;2023-11-21T12:11:01;100637.66;;;31.35;63.05
36798;BME280;22748;8.426;99.512;2023-11-21T12:13:47;100641.63;;;31.32;63.21
36798;BME280;22748;8.426;99.512;2023-11-21T12:16:21;100647.84;;;31.33;63.25
36798;BME280;22748;8.426;99.512;2023-11-21T12:18:55;100654.06;;;31.33;63.22
36798;BME280;22748;8.426;99.512;2023-11-21T12:21:25;100654.06;;;31.33;63.34
36798;BME280;22748;8.426;99.512;2023-11-21T12:23:58;100651.38;;;31.33;63.38
36798;BME280;22748;8.426;99.512;2023-11-21T12:26:29;100655.94;;;31.33;63.56
36798;BME280;22748;8.426;99.512;2023-11-21T12:29:00;100666.72;;;31.33;63.26
36798;BME280;22748;8.426;99.512;2023-11-21T12:31:32;100662.63;;;31.30;63.28
36798;BME280;22748;8.426;99.512;2023-11-21T12:34:04;100661.00;;;31.29;63.29
36798;BME280;22748;8.426;99.512;2023-11-21T12:36:34;100670.13;;;31.28;63.77
36798;BME280;22748;8.426;99.512;2023-11-21T12:39:07;100676.56;;;31.27;63.66
36798;BME280;22748;8.426;99.512;2023-11-21T12:41:39;100679.28;;;31.27;63.50
36798;BME280;22748;8.426;99.512;2023-11-21T12:44:12;100683.47;;;31.23;63.50
36798;BME280;22748;8.426;99.512;2023-11-21T12:46:44;100683.81;;;31.27;63.37
36798;BME280;22748;8.426;99.512;2023-11-21T12:49:17;100679.28;;;31.27;63.11
36798;BME280;22748;8.426;99.512;2023-11-21T12:51:50;100694.59;;;31.27;63.45
36798;BME280;22748;8.426;99.512;2023-11-21T12:54:23;100696.50;;;31.26;63.18
36798;BME280;22748;8.426;99.512;2023-11-21T12:56:53;100689.47;;;31.25;63.19
36798;BME280;22748;8.426;99.512;2023-11-21T12:59:24;100696.72;;;31.25;63.06
36798;BME280;22748;8.426;99.512;2023-11-21T13:01:55;100697.16;;;31.22;62.94
36798;BME280;22748;8.426;99.512;2023-11-21T13:04:35;100709.22;;;31.19;63.05
36798;BME280;22748;8.426;99.512;2023-11-21T13:07:06;100712.97;;;31.18;62.92
36798;BME280;22748;8.426;99.512;2023-11-21T13:09:44;100713.41;;;31.15;62.96
36798;BME280;22748;8.426;99.512;2023-11-21T13:12:15;100710.94;;;31.13;63.27
36798;BME280;22748;8.426;99.512;2023-11-21T13:14:48;100710.13;;;31.13;63.14
36798;BME280;22748;8.426;99.512;2023-11-21T13:17:22;100714.91;;;31.11;63.19
36798;BME280;22748;8.426;99.512;2023-11-21T13:20:02;100725.91;;;31.09;63.38
36798;BME280;22748;8.426;99.512;2023-11-21T13:22:38;100724.28;;;31.08;63.07
36798;BME280;22748;8.426;99.512;2023-11-21T13:25:10;100729.28;;;31.05;63.04
36798;BME280;22748;8.426;99.512;2023-11-21T13:27:42;100727.41;;;31.05;63.18
36798;BME280;22748;8.426;99.512;2023-11-21T13:30:14;100743.00;;;31.03;63.09